Time;durP1;ratioP1;P1;durP2;ratioP2;P2;SDS_P1;SDS_P2;PMS_P1;PMS_P2;Temp;Humidity;BMP_temperature;BMP_pressure;BME280_temperature;BME280_humidity;BME280_pressure;Samples;Min_cycle;Max_cycle;Signal;HPM_P1;HPM_P2
2022/07/10 15:10:32;;;;;;;14.18;2.60;;;18.00;99.90;;;;;;4905499;29;20052;-84
2022/07/10 15:12:59;;;;;;;8.75;2.38;;;17.90;99.90;;;;;;4921054;29;20036;-84
2022/07/10 15:15:25;;;;;;;13.57;2.20;;;17.90;99.90;;;;;;4928229;29;20043;-84
2022/07/10 15:17:51;;;;;;;6.68;1.42;;;17.90;99.90;;;;;;4916911;29;20028;-84
2022/07/10 15:20:18;;;;;;;9.13;2.40;;;17.90;99.90;;;;;;4901417;29;20056;-82
2022/07/10 15:22:45;;;;;;;12.43;1.75;;;17.90;99.90;;;;;;4905320;29;20044;-82
2022/07/10 15:25:11;;;;;;;13.82;1.98;;;17.80;99.90;;;;;;4902007;29;20036;-84
2022/07/10 15:27:39;;;;;;;5.57;1.88;;;17.80;99.90;;;;;;4905282;29;20040;-85
2022/07/10 15:30:05;;;;;;;11.00;1.63;;;17.80;99.90;;;;;;4907033;29;20025;-83
2022/07/10 15:32:45;;;;;;;6.68;1.45;;;17.80;99.90;;;;;;4908556;29;20428;-83
2022/07/10 15:35:11;;;;;;;7.38;1.70;;;17.90;99.90;;;;;;4904559;29;20068;-83
2022/07/10 15:37:51;;;;;;;8.73;2.05;;;18.00;99.90;;;;;;4900023;29;20044;-82
2022/07/10 15:40:17;;;;;;;5.90;1.40;;;18.10;99.90;;;;;;4912002;29;20480;-82
2022/07/10 15:42:45;;;;;;;6.43;1.10;;;18.30;99.90;;;;;;4918412;29;20040;-83
2022/07/10 15:45:10;;;;;;;10.32;1.52;;;18.50;99.90;;;;;;4911793;29;20035;-83
2022/07/10 15:47:47;;;;;;;12.23;2.75;;;18.60;99.90;;;;;;4898800;29;20465;-83
2022/07/10 15:50:13;;;;;;;7.55;1.58;;;18.70;99.90;;;;;;4911470;29;20032;-83
2022/07/10 15:52:42;;;;;;;8.57;1.52;;;18.60;99.90;;;;;;4916680;29;20046;-82
2022/07/10 15:55:15;;;;;;;7.55;1.65;;;18.60;99.90;;;;;;4902686;29;20032;-83
2022/07/10 15:57:41;;;;;;;7.30;1.30;;;18.60;99.90;;;;;;4899642;29;20071;-82
2022/07/10 16:00:18;;;;;;;9.50;1.38;;;18.60;99.90;;;;;;4916849;29;20504;-83
2022/07/10 16:02:44;;;;;;;4.57;1.13;;;18.50;99.90;;;;;;4905238;29;20032;-82
2022/07/10 16:05:10;;;;;;;7.65;1.52;;;18.50;99.90;;;;;;4902622;29;20107;-82
2022/07/10 16:07:35;;;;;;;9.75;1.50;;;18.50;99.90;;;;;;4904368;29;20456;-82
2022/07/10 16:10:01;;;;;;;10.23;1.63;;;18.50;99.90;;;;;;4909976;29;20037;-83
2022/07/10 16:12:27;;;;;;;9.98;1.80;;;18.60;99.90;;;;;;4898924;29;20092;-82
2022/07/10 16:14:54;;;;;;;8.18;1.60;;;18.70;99.90;;;;;;4913243;29;20037;-82
2022/07/10 16:17:26;;;;;;;4.82;1.38;;;18.80;99.90;;;;;;4921157;29;20028;-82
2022/07/10 16:19:52;;;;;;;12.23;1.77;;;18.90;99.90;;;;;;4897909;29;20049;-83
2022/07/10 16:22:17;;;;;;;9.95;1.58;;;18.90;99.90;;;;;;4898149;29;20040;-83
2022/07/10 16:27:27;;;;;;;8.50;1.60;;;18.80;99.90;;;;;;4904403;29;20491;-82
2022/07/10 16:29:53;;;;;;;11.93;1.75;;;18.80;99.90;;;;;;4913637;29;20111;-81
2022/07/10 16:32:19;;;;;;;10.10;1.88;;;18.70;99.90;;;;;;4899284;29;20029;-81
2022/07/10 16:34:45;;;;;;;5.32;1.40;;;18.70;99.90;;;;;;4926661;29;20083;-82
2022/07/10 16:37:11;;;;;;;8.57;1.25;;;18.70;99.90;;;;;;4911738;29;20029;-83
2022/07/10 16:39:37;;;;;;;6.70;1.58;;;18.60;99.90;;;;;;4906660;29;20026;-83
2022/07/10 16:42:03;;;;;;;8.52;1.50;;;18.60;99.90;;;;;;4901908;29;20485;-82
2022/07/10 16:44:30;;;;;;;7.88;1.40;;;18.50;99.90;;;;;;4897766;29;20095;-82
2022/07/10 16:46:57;;;;;;;11.77;1.83;;;18.50;99.90;;;;;;4901604;29;20028;-83
2022/07/10 16:49:22;;;;;;;8.52;1.40;;;18.30;99.90;;;;;;4908742;29;20058;-83
2022/07/10 16:51:48;;;;;;;4.80;1.40;;;18.20;99.90;;;;;;4913832;29;20059;-81
2022/07/10 16:54:13;;;;;;;13.52;1.42;;;18.20;99.90;;;;;;4901136;29;20039;-81
2022/07/10 16:56:40;;;;;;;14.27;2.38;;;18.10;99.90;;;;;;4919586;29;20041;-82
2022/07/10 16:59:07;;;;;;;2.97;1.05;;;17.90;99.90;;;;;;4905896;29;20091;-84
2022/07/10 17:01:32;;;;;;;4.97;1.83;;;17.80;99.90;;;;;;4910318;29;20041;-84
2022/07/10 17:03:58;;;;;;;6.13;1.30;;;17.80;99.90;;;;;;4900647;29;20137;-84
2022/07/10 17:06:24;;;;;;;8.00;1.50;;;17.80;99.90;;;;;;4898108;29;20029;-85
2022/07/10 17:08:50;;;;;;;4.93;1.00;;;17.90;99.90;;;;;;4896813;29;20039;-85
2022/07/10 17:11:15;;;;;;;7.55;1.45;;;18.00;99.90;;;;;;4903498;29;20032;-83
2022/07/10 17:13:57;;;;;;;3.83;1.17;;;18.00;99.90;;;;;;4906173;29;20493;-84
2022/07/10 17:16:23;;;;;;;3.83;1.00;;;17.90;99.90;;;;;;4900132;29;20033;-85
2022/07/10 17:18:49;;;;;;;4.82;1.35;;;17.90;99.90;;;;;;4907151;29;20032;-84
2022/07/10 17:21:17;;;;;;;7.85;1.33;;;17.90;99.90;;;;;;4905243;29;20028;-85
2022/07/10 17:23:43;;;;;;;6.18;1.33;;;17.90;99.90;;;;;;4917412;29;20036;-84
2022/07/10 17:26:08;;;;;;;6.45;1.85;;;18.00;99.90;;;;;;4903622;29;20029;-86
2022/07/10 17:28:40;;;;;;;11.60;1.83;;;17.90;99.90;;;;;;4907031;29;20028;-85
2022/07/10 17:31:09;;;;;;;2.95;1.15;;;18.00;99.90;;;;;;4901480;29;20035;-84
2022/07/10 17:33:35;;;;;;;9.88;1.55;;;18.00;99.90;;;;;;4916705;29;20515;-84
2022/07/10 17:36:02;;;;;;;7.15;1.27;;;17.90;99.90;;;;;;4903393;29;20042;-85
2022/07/10 17:38:28;;;;;;;9.77;1.40;;;17.90;99.90;;;;;;4910864;29;20031;-84
2022/07/10 17:40:58;;;;;;;9.20;1.67;;;17.80;99.90;;;;;;4911690;29;20033;-85
2022/07/10 17:43:24;;;;;;;6.13;1.30;;;17.70;99.90;;;;;;4895584;29;20063;-83
2022/07/10 17:45:49;;;;;;;4.65;0.98;;;17.70;99.90;;;;;;4899259;29;20032;-85
2022/07/10 17:48:17;;;;;;;3.17;1.08;;;17.70;99.90;;;;;;4898158;29;20024;-86
2022/07/10 17:50:42;;;;;;;7.75;1.15;;;17.70;99.90;;;;;;4915584;29;20088;-84
2022/07/10 17:53:08;;;;;;;6.22;1.10;;;17.70;99.90;;;;;;4917575;29;20422;-83
2022/07/10 17:55:50;;;;;;;2.60;0.90;;;17.70;99.90;;;;;;4899941;29;20493;-85
2022/07/10 17:58:16;;;;;;;9.85;1.00;;;17.70;99.90;;;;;;4920866;29;20135;-84
2022/07/10 18:00:41;;;;;;;7.03;0.90;;;17.70;99.90;;;;;;4911160;29;20116;-84
2022/07/10 18:03:08;;;;;;;4.45;0.93;;;17.70;99.90;;;;;;4921444;29;20072;-83
2022/07/10 18:05:34;;;;;;;5.30;1.20;;;17.70;99.90;;;;;;4914557;29;20425;-84
2022/07/10 18:07:59;;;;;;;4.70;1.10;;;17.70;99.90;;;;;;4916142;29;20110;-83
2022/07/10 18:10:25;;;;;;;1.85;0.75;;;17.80;99.90;;;;;;4903678;29;20040;-82
2022/07/10 18:13:21;;;;;;;4.10;1.38;;;17.80;99.90;;;;;;4901646;29;20029;-83
2022/07/10 18:15:47;;;;;;;7.60;1.23;;;17.80;99.90;;;;;;4912123;29;20036;-84
2022/07/10 18:18:12;;;;;;;5.90;0.90;;;17.70;99.90;;;;;;4906055;29;20163;-84
2022/07/10 18:21:12;;;;;;;6.00;0.90;;;17.60;99.90;;;;;;4910990;29;20445;-85
2022/07/10 18:23:39;;;;;;;5.95;1.13;;;17.60;99.90;;;;;;4913810;29;20024;-84
2022/07/10 18:26:05;;;;;;;6.70;1.00;;;17.60;99.90;;;;;;4906618;29;20032;-85
2022/07/10 18:28:39;;;;;;;5.60;0.80;;;17.50;99.90;;;;;;4914360;29;20028;-84
2022/07/10 18:31:07;;;;;;;5.65;1.00;;;17.40;99.90;;;;;;4909694;29;20028;-84
2022/07/10 18:36:26;;;;;;;9.85;1.30;;;17.30;99.90;;;;;;4902516;29;20031;-84
2022/07/10 18:38:51;;;;;;;9.18;1.67;;;17.20;99.90;;;;;;4899381;29;20518;-85
2022/07/10 18:41:17;;;;;;;5.97;1.33;;;17.10;99.90;;;;;;4900976;29;20028;-84
2022/07/10 18:43:44;;;;;;;3.05;1.35;;;17.00;99.90;;;;;;4919246;29;20024;-84
2022/07/10 18:46:10;;;;;;;2.80;0.88;;;17.00;99.90;;;;;;4899865;29;20091;-83
2022/07/10 18:48:35;;;;;;;3.08;0.90;;;16.90;99.90;;;;;;4915492;29;20472;-83
2022/07/10 18:51:24;;;;;;;3.55;0.85;;;16.80;99.90;;;;;;4913907;29;20020;-84
2022/07/10 18:53:50;;;;;;;3.03;0.75;;;16.80;99.90;;;;;;4904683;29;20031;-84
2022/07/10 18:56:17;;;;;;;5.20;1.05;;;16.70;99.90;;;;;;4907801;29;20458;-84
2022/07/10 18:58:43;;;;;;;5.93;1.20;;;16.70;99.90;;;;;;4900023;29;20028;-84
2022/07/10 19:01:19;;;;;;;3.83;0.85;;;16.60;99.90;;;;;;4914132;29;20534;-84
2022/07/10 19:03:46;;;;;;;2.53;0.63;;;16.60;99.90;;;;;;4915766;29;20036;-83
2022/07/10 19:06:17;;;;;;;2.30;0.60;;;16.60;99.90;;;;;;4907607;29;20057;-83
2022/07/10 19:08:43;;;;;;;3.30;0.80;;;16.50;99.90;;;;;;4922034;29;20648;-84
2022/07/10 19:11:09;;;;;;;2.92;0.70;;;16.40;99.90;;;;;;4902819;29;20075;-84
2022/07/10 19:13:46;;;;;;;4.43;0.80;;;16.40;99.90;;;;;;4906143;29;20040;-84
2022/07/10 19:16:11;;;;;;;8.00;0.73;;;16.30;99.90;;;;;;4905329;29;20094;-84
2022/07/10 19:18:39;;;;;;;4.13;1.00;;;16.20;99.90;;;;;;4907860;29;20036;-85
2022/07/10 19:21:18;;;;;;;9.60;1.50;;;16.20;99.90;;;;;;4908813;29;20017;-84
2022/07/10 19:23:45;;;;;;;2.75;0.70;;;16.20;99.90;;;;;;4903494;29;20084;-84
2022/07/10 19:26:13;;;;;;;3.58;0.90;;;16.20;99.90;;;;;;4904094;29;20551;-84
2022/07/10 19:28:39;;;;;;;2.15;0.93;;;16.10;99.90;;;;;;4917633;29;20035;-85
2022/07/10 19:31:04;;;;;;;6.32;1.00;;;16.10;99.90;;;;;;4912817;29;20020;-85
2022/07/10 19:33:35;;;;;;;2.72;0.88;;;16.10;99.90;;;;;;4910787;29;20084;-84
2022/07/10 19:36:02;;;;;;;2.67;1.23;;;16.10;99.90;;;;;;4918322;29;20039;-85
2022/07/10 19:38:27;;;;;;;5.75;0.98;;;16.00;99.90;;;;;;4906020;29;20044;-84
2022/07/10 19:40:56;;;;;;;5.72;1.85;;;15.90;99.90;;;;;;4897668;29;20024;-85
2022/07/10 19:43:22;;;;;;;6.07;1.00;;;15.90;99.90;;;;;;4915507;29;20032;-84
2022/07/10 19:45:47;;;;;;;7.63;1.17;;;15.80;99.90;;;;;;4905923;29;20036;-84
2022/07/10 19:48:13;;;;;;;7.80;1.10;;;15.80;99.90;;;;;;4899691;29;20380;-85
2022/07/10 19:50:38;;;;;;;6.18;1.48;;;15.70;99.90;;;;;;4898831;29;20041;-85
2022/07/10 19:53:06;;;;;;;4.53;1.05;;;15.70;99.90;;;;;;4913432;29;20119;-84
2022/07/10 19:55:32;;;;;;;3.92;1.00;;;15.70;99.90;;;;;;4907600;29;20028;-84
2022/07/10 19:57:58;;;;;;;5.88;1.05;;;15.70;99.90;;;;;;4921970;29;20095;-84
2022/07/10 20:00:53;;;;;;;2.60;0.82;;;15.70;99.90;;;;;;4913392;29;20092;-84
2022/07/10 20:03:18;;;;;;;6.07;1.05;;;15.60;99.90;;;;;;4898309;29;20057;-84
2022/07/10 20:05:44;;;;;;;6.45;0.70;;;15.50;99.90;;;;;;4899438;29;20024;-84
2022/07/10 20:08:16;;;;;;;7.00;1.15;;;15.50;99.90;;;;;;4912740;29;20024;-85
2022/07/10 20:10:49;;;;;;;6.00;1.05;;;15.50;99.90;;;;;;4898561;29;20366;-85
2022/07/10 20:13:14;;;;;;;7.63;1.20;;;15.40;99.90;;;;;;4897758;29;20515;-85
2022/07/10 20:15:40;;;;;;;1.80;0.73;;;15.40;99.90;;;;;;4900585;29;20060;-84
2022/07/10 20:18:07;;;;;;;6.00;1.27;;;15.40;99.90;;;;;;4914790;29;20033;-84
2022/07/10 20:20:32;;;;;;;5.05;1.20;;;15.40;99.90;;;;;;4913173;29;20097;-84
2022/07/10 20:22:58;;;;;;;5.97;1.25;;;15.40;99.90;;;;;;4908119;29;20062;-84
2022/07/10 20:25:39;;;;;;;4.53;0.95;;;15.40;99.90;;;;;;4914209;29;20020;-84
2022/07/10 20:28:05;;;;;;;4.28;1.08;;;15.30;99.90;;;;;;4917652;29;20024;-84
2022/07/10 20:30:30;;;;;;;3.88;1.00;;;15.30;99.90;;;;;;4915199;29;20488;-84
2022/07/10 20:32:56;;;;;;;4.53;1.20;;;15.30;99.90;;;;;;4907110;29;20024;-84
2022/07/10 20:35:22;;;;;;;5.47;1.02;;;15.20;99.90;;;;;;4914792;29;20017;-84
2022/07/10 20:37:47;;;;;;;2.78;0.80;;;15.20;99.90;;;;;;4913978;29;20032;-83
2022/07/10 20:40:19;;;;;;;4.75;0.95;;;15.20;99.90;;;;;;4898802;29;20152;-84
2022/07/10 20:42:45;;;;;;;9.32;1.15;;;15.20;99.90;;;;;;4898363;29;20437;-84
2022/07/10 20:45:13;;;;;;;4.28;1.02;;;15.20;99.90;;;;;;4904178;29;20115;-84
2022/07/10 20:47:39;;;;;;;9.77;1.10;;;15.20;99.90;;;;;;4898164;29;20185;-84
2022/07/10 20:50:14;;;;;;;5.90;0.82;;;15.10;99.90;;;;;;4899943;29;20027;-84
2022/07/10 20:52:41;;;;;;;2.28;0.82;;;15.10;99.90;;;;;;4910287;29;20035;-84
2022/07/10 20:55:08;;;;;;;2.72;0.77;;;15.10;99.90;;;;;;4899507;29;20033;-84
2022/07/10 20:57:39;;;;;;;2.55;0.80;;;15.10;99.90;;;;;;4916692;29;20110;-84
2022/07/10 21:00:10;;;;;;;4.28;1.02;;;15.10;99.90;;;;;;4916641;29;20365;-84
2022/07/10 21:02:37;;;;;;;3.63;0.80;;;15.10;99.90;;;;;;4916952;29;20024;-85
2022/07/10 21:05:05;;;;;;;3.45;0.82;;;15.00;99.90;;;;;;4914738;29;20387;-84
2022/07/10 21:07:31;;;;;;;3.03;0.90;;;15.00;99.90;;;;;;4920974;29;20160;-84
2022/07/10 21:09:56;;;;;;;4.47;0.90;;;15.00;99.90;;;;;;4912774;29;20115;-84
2022/07/10 21:12:36;;;;;;;2.40;0.77;;;14.90;99.90;;;;;;4913877;29;20136;-84
2022/07/10 21:15:03;;;;;;;3.97;0.90;;;15.00;99.90;;;;;;4901384;29;20033;-84
2022/07/10 21:17:30;;;;;;;6.15;1.50;;;15.00;99.90;;;;;;4897588;29;20087;-84
2022/07/10 21:20:16;;;;;;;5.35;1.13;;;14.90;99.90;;;;;;4897802;29;20021;-84
2022/07/10 21:22:41;;;;;;;5.00;1.02;;;15.00;99.90;;;;;;4905421;29;20119;-84
2022/07/10 21:25:09;;;;;;;2.13;0.63;;;14.90;99.90;;;;;;4914598;29;20107;-84
2022/07/10 21:27:35;;;;;;;4.63;1.00;;;14.90;99.90;;;;;;4908611;29;20392;-84
2022/07/10 21:30:13;;;;;;;4.43;0.88;;;14.80;99.90;;;;;;4897379;29;20025;-84
2022/07/10 21:32:38;;;;;;;2.15;1.10;;;14.90;99.90;;;;;;4896322;29;20098;-84
2022/07/10 21:35:04;;;;;;;1.67;0.68;;;14.80;99.90;;;;;;4903827;29;20036;-84
2022/07/10 21:37:36;;;;;;;5.57;0.90;;;14.90;99.90;;;;;;4915681;29;20087;-84
2022/07/10 21:40:02;;;;;;;6.30;0.90;;;14.80;99.90;;;;;;4920704;29;20037;-84
2022/07/10 21:42:27;;;;;;;6.65;1.35;;;14.80;99.90;;;;;;4931038;29;20036;-84
2022/07/10 21:45:19;;;;;;;5.47;1.00;;;14.80;99.90;;;;;;4901559;29;20029;-84
2022/07/10 21:47:46;;;;;;;4.90;1.08;;;14.80;99.90;;;;;;4932906;29;20476;-84
2022/07/10 21:50:12;;;;;;;7.97;0.95;;;14.80;99.90;;;;;;4901167;29;20131;-83
2022/07/10 21:52:44;;;;;;;3.67;0.82;;;14.70;99.90;;;;;;4919500;29;20056;-84
2022/07/10 21:55:10;;;;;;;2.88;0.90;;;14.70;99.90;;;;;;4904493;29;20048;-84
2022/07/10 21:57:35;;;;;;;7.00;1.15;;;14.70;99.90;;;;;;4907663;29;20029;-84
2022/07/10 22:00:08;;;;;;;5.82;1.13;;;14.70;99.90;;;;;;4913158;29;20114;-84
2022/07/10 22:02:34;;;;;;;7.22;1.10;;;14.70;99.90;;;;;;4900821;29;20433;-84
2022/07/10 22:04:59;;;;;;;7.13;1.20;;;14.70;99.90;;;;;;4906946;29;20036;-84
2022/07/10 22:07:42;;;;;;;4.28;0.90;;;14.60;99.90;;;;;;4912502;29;20025;-84
2022/07/10 22:10:37;;;;;;;5.85;1.38;;;14.60;99.90;;;;;;4909621;29;20044;-84
2022/07/10 22:13:03;;;;;;;4.93;1.10;;;14.60;99.90;;;;;;4901023;29;20040;-84
2022/07/10 22:15:28;;;;;;;6.07;1.20;;;14.50;99.90;;;;;;4902703;29;20052;-84
2022/07/10 22:18:13;;;;;;;4.28;1.02;;;14.50;99.90;;;;;;4918402;29;20043;-84
2022/07/10 22:20:38;;;;;;;5.70;1.27;;;14.50;99.90;;;;;;4910275;29;20032;-84
2022/07/10 22:23:04;;;;;;;2.58;0.90;;;14.50;99.90;;;;;;4917856;29;20028;-84
2022/07/10 22:26:14;;;;;;;4.82;1.00;;;14.50;99.90;;;;;;4900584;29;20037;-84
2022/07/10 22:28:40;;;;;;;5.82;1.35;;;14.40;99.90;;;;;;4915132;29;20091;-84
2022/07/10 22:33:50;;;;;;;5.88;1.30;;;14.40;99.90;;;;;;4918715;29;20511;-84
2022/07/10 22:36:16;;;;;;;11.15;2.08;;;14.40;99.90;;;;;;4906426;29;20076;-84
2022/07/10 22:38:43;;;;;;;5.15;1.27;;;14.30;99.90;;;;;;4914779;29;20032;-85
2022/07/10 22:41:10;;;;;;;4.55;0.85;;;14.30;99.90;;;;;;4908302;29;20524;-84
2022/07/10 22:44:25;;;;;;;3.45;1.02;;;14.30;99.90;;;;;;4900427;29;20107;-84
2022/07/10 22:46:51;;;;;;;7.47;1.23;;;14.30;99.90;;;;;;4902680;29;20052;-84
2022/07/10 22:49:16;;;;;;;6.68;1.40;;;14.20;99.90;;;;;;4900448;29;20059;-84
2022/07/10 22:51:46;;;;;;;5.15;1.30;;;14.20;99.90;;;;;;4907312;29;20058;-84
2022/07/10 22:54:12;;;;;;;7.78;1.25;;;14.20;99.90;;;;;;4915766;29;20032;-84
2022/07/10 22:57:02;;;;;;;3.67;0.80;;;14.10;99.90;;;;;;4912679;29;20434;-84
2022/07/10 22:59:28;;;;;;;7.57;1.23;;;14.20;99.90;;;;;;4903431;29;20039;-84
2022/07/10 23:01:53;;;;;;;6.45;1.30;;;14.10;99.90;;;;;;4918188;29;20385;-84
2022/07/10 23:04:52;;;;;;;8.25;1.25;;;14.10;99.90;;;;;;4909237;29;20084;-84
2022/07/10 23:07:18;;;;;;;5.25;0.90;;;14.10;99.90;;;;;;4903696;29;20033;-84
2022/07/10 23:10:13;;;;;;;5.35;1.25;;;14.00;99.90;;;;;;4905529;29;20048;-84
2022/07/10 23:12:38;;;;;;;1.67;0.60;;;14.00;99.90;;;;;;4900056;29;20295;-84
2022/07/10 23:15:06;;;;;;;3.60;1.02;;;13.90;99.90;;;;;;4907661;29;20040;-84
2022/07/10 23:17:32;;;;;;;6.80;1.13;;;13.90;99.90;;;;;;4916806;29;20139;-84
2022/07/10 23:19:57;;;;;;;6.45;1.20;;;13.90;99.90;;;;;;4907453;29;20035;-84
2022/07/10 23:23:06;;;;;;;3.45;1.13;;;13.80;99.90;;;;;;4900093;29;20037;-84
2022/07/10 23:25:31;;;;;;;2.60;0.90;;;13.80;99.90;;;;;;4907906;29;20388;-84
2022/07/10 23:27:57;;;;;;;6.85;1.35;;;13.90;99.90;;;;;;4913634;29;20021;-84
2022/07/10 23:30:28;;;;;;;5.78;0.90;;;13.90;99.90;;;;;;4900022;29;20088;-84
2022/07/10 23:32:53;;;;;;;1.88;0.70;;;13.80;99.90;;;;;;4908490;29;20107;-84
2022/07/10 23:35:19;;;;;;;4.72;1.05;;;13.80;99.90;;;;;;4911489;29;20123;-84
2022/07/10 23:38:38;;;;;;;3.53;0.73;;;13.80;99.90;;;;;;4913624;29;20035;-84
2022/07/10 23:41:04;;;;;;;3.15;0.93;;;13.80;99.90;;;;;;4909212;29;20396;-84
2022/07/10 23:43:30;;;;;;;7.07;1.10;;;13.80;99.90;;;;;;4901300;29;20032;-84
2022/07/10 23:46:15;;;;;;;3.33;1.15;;;13.80;99.90;;;;;;4913717;29;20033;-84
2022/07/10 23:51:29;;;;;;;3.25;1.00;;;13.70;99.90;;;;;;4913252;29;20043;-84
2022/07/10 23:53:54;;;;;;;3.25;0.80;;;13.70;99.90;;;;;;4909093;29;20504;-85
2022/07/10 23:56:20;;;;;;;5.30;1.08;;;13.70;99.90;;;;;;4909225;29;20024;-84
2022/07/10 23:59:02;;;;;;;2.42;0.80;;;13.70;99.90;;;;;;4901411;29;20028;-85
